Time;durP1;ratioP1;P1;durP2;ratioP2;P2;SDS_P1;SDS_P2;PMS_P1;PMS_P2;Temp;Humidity;BMP_temperature;BMP_pressure;BME280_temperature;BME280_humidity;BME280_pressure;Samples;Min_cycle;Max_cycle;Signal;HPM_P1;HPM_P2
2023/05/03 00:00:40;;;;;;;4.50;4.10;;;9.00;54.20;;;;;;6211780;28;20234;-80
2023/05/03 00:03:45;;;;;;;4.43;4.23;;;8.90;54.70;;;;;;6226805;28;20242;-79
2023/05/03 00:06:50;;;;;;;4.67;4.17;;;8.90;54.50;;;;;;6210401;28;20247;-80
2023/05/03 00:09:53;;;;;;;5.50;4.27;;;8.90;54.80;;;;;;6218760;28;20316;-82
2023/05/03 00:12:59;;;;;;;4.57;4.27;;;8.90;54.30;;;;;;6211217;28;20240;-80
2023/05/03 00:16:02;;;;;;;4.50;4.10;;;8.80;54.70;;;;;;6213161;28;20239;-80
2023/05/03 00:19:05;;;;;;;4.83;4.37;;;8.70;54.80;;;;;;6209959;28;20811;-81
2023/05/03 00:22:21;;;;;;;4.13;3.83;;;8.60;54.60;;;;;;6217528;28;20330;-79
2023/05/03 00:25:24;;;;;;;4.77;4.07;;;8.60;54.80;;;;;;6207320;28;20226;-80
2023/05/03 00:28:27;;;;;;;6.33;4.90;;;8.60;54.80;;;;;;6217954;28;20239;-80
2023/05/03 00:31:30;;;;;;;5.90;4.50;;;8.60;55.00;;;;;;6210697;28;20874;-81
2023/05/03 00:34:33;;;;;;;4.43;4.23;;;8.50;55.20;;;;;;6208233;28;20617;-82
2023/05/03 00:37:38;;;;;;;6.90;4.13;;;8.50;55.30;;;;;;6202938;28;20250;-80
2023/05/03 00:40:41;;;;;;;4.60;4.30;;;8.50;55.20;;;;;;6209937;28;20236;-82
2023/05/03 00:43:44;;;;;;;5.13;4.80;;;8.40;55.50;;;;;;6216367;28;24996;-81
2023/05/03 00:46:47;;;;;;;7.07;4.37;;;8.40;55.60;;;;;;6224022;28;20251;-80
2023/05/03 00:49:51;;;;;;;5.37;4.37;;;8.30;56.00;;;;;;6232608;28;20401;-80
2023/05/03 00:52:55;;;;;;;5.33;4.33;;;8.30;56.30;;;;;;6215615;28;20239;-82
2023/05/03 00:56:00;;;;;;;4.57;4.20;;;8.20;56.30;;;;;;6209724;28;20745;-79
2023/05/03 00:59:04;;;;;;;4.90;4.60;;;8.10;56.80;;;;;;6209073;28;20231;-80
2023/05/03 01:02:08;;;;;;;6.30;4.27;;;8.10;56.50;;;;;;6205776;28;20246;-80
2023/05/03 01:05:11;;;;;;;4.20;4.00;;;8.10;56.70;;;;;;6217099;28;20235;-80
2023/05/03 01:08:26;;;;;;;6.03;4.57;;;8.00;56.90;;;;;;6211271;28;20228;-79
2023/05/03 01:11:38;;;;;;;4.10;3.90;;;8.00;57.10;;;;;;6217404;28;20239;-78
2023/05/03 01:14:49;;;;;;;5.03;4.10;;;8.00;57.40;;;;;;6221753;28;20369;-82
2023/05/03 01:18:01;;;;;;;4.37;4.10;;;7.90;57.40;;;;;;6215472;28;20378;-80
2023/05/03 01:21:06;;;;;;;4.50;4.10;;;7.80;57.70;;;;;;6214570;28;20437;-81
2023/05/03 01:24:16;;;;;;;4.53;4.27;;;7.80;57.90;;;;;;6212296;28;20227;-81
2023/05/03 01:27:20;;;;;;;4.77;4.50;;;7.70;58.20;;;;;;6229744;28;20731;-82
2023/05/03 01:30:27;;;;;;;6.83;4.67;;;7.60;58.20;;;;;;6222060;28;20622;-81
2023/05/03 01:33:37;;;;;;;4.37;4.07;;;7.60;58.40;;;;;;6208811;28;20238;-83
2023/05/03 01:36:43;;;;;;;8.07;4.80;;;7.60;58.50;;;;;;6208146;28;20250;-77
2023/05/03 01:39:53;;;;;;;5.63;4.87;;;7.50;58.60;;;;;;6200731;28;20236;-81
2023/05/03 01:42:59;;;;;;;4.47;4.17;;;7.50;58.70;;;;;;6212829;28;20247;-79
2023/05/03 01:46:02;;;;;;;5.00;4.40;;;7.50;58.80;;;;;;6207078;28;20246;-79
2023/05/03 01:49:05;;;;;;;4.77;4.47;;;7.40;58.90;;;;;;6212384;28;20226;-80
2023/05/03 01:52:09;;;;;;;4.60;4.27;;;7.40;59.30;;;;;;6232288;28;20240;-80
2023/05/03 01:55:12;;;;;;;5.20;4.67;;;7.30;59.30;;;;;;6211740;28;20542;-82
2023/05/03 01:58:16;;;;;;;6.03;4.60;;;7.30;59.20;;;;;;6223259;28;20231;-78
2023/05/03 02:01:19;;;;;;;4.23;4.10;;;7.20;59.40;;;;;;6222401;28;20235;-81
2023/05/03 02:04:22;;;;;;;4.20;4.00;;;7.20;59.50;;;;;;6210820;28;20242;-80
2023/05/03 02:07:25;;;;;;;5.00;4.47;;;7.20;59.50;;;;;;6205733;28;20251;-81
2023/05/03 02:10:28;;;;;;;4.47;4.07;;;7.10;59.70;;;;;;6201707;28;20236;-80
2023/05/03 02:13:33;;;;;;;5.33;4.63;;;7.10;59.70;;;;;;6199299;28;20310;-81
2023/05/03 02:16:36;;;;;;;4.67;4.30;;;7.00;60.00;;;;;;6208991;28;20703;-80
2023/05/03 02:19:39;;;;;;;5.40;4.93;;;7.00;60.00;;;;;;6216749;28;20243;-79
2023/05/03 02:22:42;;;;;;;4.83;4.40;;;7.00;60.30;;;;;;6226754;28;20239;-80
2023/05/03 02:25:45;;;;;;;4.80;4.40;;;7.00;60.30;;;;;;6198486;28;20609;-80
2023/05/03 02:28:49;;;;;;;6.30;4.57;;;6.90;60.30;;;;;;6208330;28;20235;-82
2023/05/03 02:31:53;;;;;;;6.70;5.00;;;6.90;60.30;;;;;;6223373;28;20247;-79
2023/05/03 02:34:56;;;;;;;5.50;4.97;;;6.90;60.30;;;;;;6224949;28;20250;-81
2023/05/03 02:37:59;;;;;;;5.77;5.17;;;6.80;60.30;;;;;;6217546;28;20240;-82
2023/05/03 02:41:02;;;;;;;5.67;4.83;;;6.80;60.40;;;;;;6220577;28;20243;-81
2023/05/03 02:44:06;;;;;;;5.80;5.07;;;6.80;60.30;;;;;;6210892;28;20729;-80
2023/05/03 02:47:10;;;;;;;9.63;5.20;;;6.70;60.50;;;;;;6197137;28;20251;-82
2023/05/03 02:50:13;;;;;;;6.43;5.67;;;6.70;60.60;;;;;;6216901;28;20239;-81
2023/05/03 02:53:16;;;;;;;5.07;4.47;;;6.70;60.70;;;;;;6220653;28;20862;-79
2023/05/03 02:56:19;;;;;;;5.47;5.07;;;6.60;60.80;;;;;;6223029;28;20250;-80
2023/05/03 02:59:24;;;;;;;6.10;5.13;;;6.60;60.80;;;;;;6201614;28;20239;-82
2023/05/03 03:02:27;;;;;;;6.17;4.90;;;6.60;60.80;;;;;;6213447;28;20239;-80
2023/05/03 03:05:30;;;;;;;4.73;4.57;;;6.50;60.90;;;;;;6201474;28;20596;-82
2023/05/03 03:08:33;;;;;;;10.20;5.67;;;6.50;60.60;;;;;;6197284;28;20231;-81
2023/05/03 03:11:36;;;;;;;7.90;4.87;;;6.60;60.40;;;;;;6210656;28;20814;-80
2023/05/03 03:14:41;;;;;;;6.27;5.43;;;6.50;60.40;;;;;;6208427;28;20238;-81
2023/05/03 03:17:44;;;;;;;5.30;4.90;;;6.40;60.60;;;;;;6229987;28;20230;-78
2023/05/03 03:20:47;;;;;;;6.10;5.00;;;6.30;60.70;;;;;;6213863;28;20315;-81
2023/05/03 03:23:50;;;;;;;5.73;5.23;;;6.30;60.90;;;;;;6202795;28;20232;-78
2023/05/03 03:26:53;;;;;;;5.50;5.07;;;6.30;61.00;;;;;;6213326;28;20266;-79
2023/05/03 03:29:58;;;;;;;6.33;5.30;;;6.20;61.10;;;;;;6205249;28;20243;-81
2023/05/03 03:33:01;;;;;;;6.17;5.73;;;6.10;61.20;;;;;;6196768;28;20253;-79
2023/05/03 03:36:06;;;;;;;5.40;4.90;;;6.20;61.30;;;;;;6205290;28;20731;-79
2023/05/03 03:39:09;;;;;;;5.57;5.07;;;6.10;61.20;;;;;;6204240;28;20242;-80
2023/05/03 03:42:13;;;;;;;8.83;5.47;;;6.10;61.20;;;;;;6217221;28;20226;-80
2023/05/03 03:45:17;;;;;;;6.10;5.47;;;6.10;61.20;;;;;;6211467;28;20234;-80
2023/05/03 03:48:20;;;;;;;6.50;5.57;;;6.10;61.30;;;;;;6229350;28;20646;-79
2023/05/03 03:51:24;;;;;;;5.70;5.17;;;6.10;61.30;;;;;;6231175;28;20285;-78
2023/05/03 03:54:27;;;;;;;5.47;5.17;;;6.10;61.10;;;;;;6229000;28;20239;-79
2023/05/03 03:57:30;;;;;;;5.37;4.93;;;6.10;61.30;;;;;;6203949;28;20831;-78
2023/05/03 04:00:36;;;;;;;8.93;5.10;;;6.00;61.40;;;;;;6205727;28;20236;-79
2023/05/03 04:03:40;;;;;;;5.23;4.70;;;6.00;61.40;;;;;;6203429;28;20235;-79
2023/05/03 04:06:43;;;;;;;7.23;5.17;;;6.00;61.50;;;;;;6239492;28;20276;-79
2023/05/03 04:09:46;;;;;;;9.73;5.23;;;5.90;61.60;;;;;;6208674;28;20685;-80
2023/05/03 04:12:49;;;;;;;6.63;5.80;;;5.90;61.60;;;;;;6210503;28;20747;-82
2023/05/03 04:15:56;;;;;;;7.13;5.50;;;6.00;61.60;;;;;;6215760;28;20247;-78
2023/05/03 04:18:59;;;;;;;5.03;4.73;;;6.00;61.70;;;;;;6227033;28;20435;-77
2023/05/03 04:22:02;;;;;;;6.43;5.50;;;6.10;61.50;;;;;;6216505;28;20243;-77
2023/05/03 04:25:08;;;;;;;9.40;5.47;;;6.00;61.80;;;;;;6207374;28;20242;-79
2023/05/03 04:28:12;;;;;;;5.53;5.23;;;6.00;61.70;;;;;;6216500;28;20357;-79
2023/05/03 04:31:16;;;;;;;6.40;4.97;;;6.10;61.60;;;;;;6205147;28;20739;-76
2023/05/03 04:34:19;;;;;;;5.80;5.30;;;6.10;61.70;;;;;;6213858;28;20232;-79
2023/05/03 04:37:23;;;;;;;5.83;5.43;;;6.10;61.80;;;;;;6213702;28;20227;-79
2023/05/03 04:40:26;;;;;;;7.67;5.50;;;6.10;62.10;;;;;;6237615;28;20810;-77
2023/05/03 04:43:29;;;;;;;6.20;5.60;;;6.20;62.00;;;;;;6236029;28;20235;-78
2023/05/03 04:46:33;;;;;;;6.23;5.63;;;6.30;61.70;;;;;;6241236;28;21864;-78
2023/05/03 04:49:38;;;;;;;6.43;5.17;;;6.30;61.70;;;;;;6235850;28;20238;-79
2023/05/03 04:52:41;;;;;;;5.50;5.00;;;6.40;61.60;;;;;;6243807;28;20757;-80
2023/05/03 04:55:46;;;;;;;5.83;5.03;;;6.40;61.40;;;;;;6238602;28;20449;-78
2023/05/03 04:58:50;;;;;;;5.73;5.20;;;6.50;61.30;;;;;;6238509;28;20231;-80
2023/05/03 05:01:54;;;;;;;5.73;5.17;;;6.60;61.30;;;;;;6220230;28;20333;-78
2023/05/03 05:04:57;;;;;;;5.87;5.13;;;6.60;61.20;;;;;;6219170;28;20668;-79
2023/05/03 05:08:00;;;;;;;5.73;4.87;;;6.70;60.90;;;;;;6215303;28;20231;-80
2023/05/03 05:11:04;;;;;;;6.70;4.70;;;6.80;60.60;;;;;;6212693;28;20240;-80
2023/05/03 05:14:08;;;;;;;4.63;4.43;;;6.90;60.40;;;;;;6213290;28;20267;-79
2023/05/03 05:17:12;;;;;;;8.17;5.40;;;7.00;60.20;;;;;;6218784;28;20261;-78
2023/05/03 05:20:16;;;;;;;6.93;5.47;;;7.20;59.80;;;;;;6210409;28;20757;-78
2023/05/03 05:23:21;;;;;;;5.97;5.47;;;7.40;59.30;;;;;;6212415;28;20235;-78
2023/05/03 05:26:24;;;;;;;5.53;5.10;;;7.50;59.40;;;;;;6211528;28;20242;-80
2023/05/03 05:29:27;;;;;;;9.27;5.23;;;7.60;58.90;;;;;;6210667;28;20236;-80
2023/05/03 05:32:32;;;;;;;10.83;5.53;;;7.80;58.90;;;;;;6208295;28;20243;-76
2023/05/03 05:35:35;;;;;;;8.00;5.53;;;7.90;58.30;;;;;;6223125;28;20251;-79
2023/05/03 05:38:38;;;;;;;5.77;5.27;;;8.00;57.80;;;;;;6246081;28;21151;-78
2023/05/03 05:41:41;;;;;;;8.73;5.20;;;8.20;57.90;;;;;;6236233;28;20316;-81
2023/05/03 05:44:44;;;;;;;5.73;5.33;;;8.60;56.90;;;;;;6238058;28;20611;-80
2023/05/03 05:47:51;;;;;;;5.20;4.80;;;8.90;56.70;;;;;;6242049;28;20249;-79
2023/05/03 05:50:54;;;;;;;7.23;5.30;;;9.20;56.30;;;;;;6249326;28;20864;-79
2023/05/03 05:53:57;;;;;;;5.33;4.93;;;9.50;55.80;;;;;;6235315;28;20242;-78
2023/05/03 05:57:00;;;;;;;7.77;4.63;;;9.80;55.00;;;;;;6221369;28;20241;-80
2023/05/03 06:00:13;;;;;;;5.50;5.00;;;10.00;54.60;;;;;;6225718;28;20239;-78
2023/05/03 06:03:17;;;;;;;9.30;5.43;;;10.10;54.30;;;;;;6232096;28;20371;-81
2023/05/03 06:06:20;;;;;;;9.13;4.73;;;10.30;54.50;;;;;;6237225;28;20238;-79
2023/05/03 06:09:23;;;;;;;6.13;5.20;;;10.50;54.00;;;;;;6241597;28;20730;-80
2023/05/03 06:12:27;;;;;;;5.20;4.57;;;10.70;53.50;;;;;;6233385;28;20734;-81
2023/05/03 06:15:30;;;;;;;8.00;4.30;;;10.70;53.50;;;;;;6238551;28;20265;-80
2023/05/03 06:18:35;;;;;;;5.03;4.57;;;10.90;52.90;;;;;;6241225;28;20227;-79
2023/05/03 06:21:38;;;;;;;9.30;4.40;;;11.10;53.30;;;;;;6227626;28;20253;-79
2023/05/03 06:24:41;;;;;;;4.90;4.30;;;11.10;52.80;;;;;;6237531;28;20875;-79
2023/05/03 06:27:44;;;;;;;6.50;3.80;;;11.00;52.80;;;;;;6235686;28;20757;-80
2023/05/03 06:30:49;;;;;;;4.23;3.70;;;11.10;52.60;;;;;;6243358;28;20246;-77
2023/05/03 06:33:53;;;;;;;3.80;3.60;;;11.10;52.10;;;;;;6240107;28;20236;-79
2023/05/03 06:36:56;;;;;;;4.47;3.90;;;11.30;52.20;;;;;;6235135;28;20754;-80
2023/05/03 06:39:59;;;;;;;6.40;3.90;;;11.60;51.90;;;;;;6236110;28;20253;-78
2023/05/03 06:43:04;;;;;;;3.70;3.40;;;11.70;50.90;;;;;;6243508;28;20704;-79
2023/05/03 06:46:08;;;;;;;4.17;3.77;;;11.90;50.70;;;;;;6230270;28;20230;-80
2023/05/03 06:49:13;;;;;;;5.00;4.13;;;11.90;50.90;;;;;;6230954;28;20242;-79
2023/05/03 06:52:16;;;;;;;5.30;3.57;;;11.90;50.50;;;;;;6230491;28;20239;-77
2023/05/03 06:55:19;;;;;;;3.67;3.43;;;12.10;50.30;;;;;;6237632;28;20226;-80
2023/05/03 06:58:22;;;;;;;7.07;3.70;;;11.70;50.00;;;;;;6229138;28;20249;-80
2023/05/03 07:01:25;;;;;;;5.50;3.50;;;11.80;50.70;;;;;;6230377;28;20231;-79
2023/05/03 07:04:30;;;;;;;4.17;3.17;;;11.90;50.00;;;;;;6231602;28;20230;-79
2023/05/03 07:07:34;;;;;;;3.80;3.13;;;12.10;50.00;;;;;;6232077;28;20233;-78
2023/05/03 07:10:37;;;;;;;4.03;3.13;;;12.30;49.70;;;;;;6237838;28;20242;-79
2023/05/03 07:13:40;;;;;;;4.90;3.10;;;12.30;49.00;;;;;;6229677;28;20273;-78
2023/05/03 07:16:43;;;;;;;7.70;3.63;;;12.40;49.20;;;;;;6232000;28;20237;-77
2023/05/03 07:19:48;;;;;;;10.37;3.90;;;12.50;48.60;;;;;;6243202;28;20733;-78
2023/05/03 07:22:51;;;;;;;5.63;3.43;;;12.50;48.50;;;;;;6228795;28;20679;-78
2023/05/03 07:25:54;;;;;;;3.90;3.07;;;12.50;48.20;;;;;;6231462;28;20239;-80
2023/05/03 07:28:58;;;;;;;3.63;3.23;;;12.30;47.90;;;;;;6233236;28;20774;-77
2023/05/03 07:32:01;;;;;;;3.30;3.10;;;11.70;49.00;;;;;;6222120;28;20240;-80
2023/05/03 07:35:07;;;;;;;4.70;3.70;;;11.90;48.70;;;;;;6235338;28;20237;-80
2023/05/03 07:38:10;;;;;;;4.03;3.60;;;11.40;49.20;;;;;;6235323;28;20770;-78
2023/05/03 07:41:13;;;;;;;7.07;3.60;;;10.90;50.00;;;;;;6238525;28;20235;-81
2023/05/03 07:44:17;;;;;;;3.83;3.40;;;10.70;50.40;;;;;;6222725;28;20265;-83
2023/05/03 07:47:23;;;;;;;6.20;3.70;;;10.80;50.80;;;;;;6237795;28;20238;-80
2023/05/03 07:50:28;;;;;;;4.47;3.80;;;10.70;50.70;;;;;;6237358;28;20324;-79
2023/05/03 07:53:31;;;;;;;3.40;3.20;;;10.90;51.40;;;;;;6247492;28;20230;-79
2023/05/03 07:56:34;;;;;;;3.77;3.67;;;10.90;50.50;;;;;;6274372;28;20282;-77
2023/05/03 07:59:37;;;;;;;4.33;3.93;;;11.20;50.50;;;;;;6263108;28;20216;-77
2023/05/03 08:02:40;;;;;;;4.70;3.10;;;11.40;50.30;;;;;;6281540;28;20245;-78
2023/05/03 08:05:45;;;;;;;3.73;3.50;;;11.40;50.10;;;;;;6273768;28;20232;-78
2023/05/03 08:08:49;;;;;;;4.93;4.00;;;11.40;50.00;;;;;;6297697;28;20240;-77
2023/05/03 08:11:52;;;;;;;4.73;3.83;;;11.30;49.40;;;;;;6268477;28;20239;-77
2023/05/03 08:14:55;;;;;;;7.63;4.40;;;11.20;49.90;;;;;;6304614;28;20294;-77
2023/05/03 08:17:59;;;;;;;5.10;4.03;;;11.10;50.30;;;;;;6262494;28;20249;-78
2023/05/03 08:21:05;;;;;;;6.63;3.97;;;11.00;50.50;;;;;;6264288;28;20235;-77
2023/05/03 08:24:09;;;;;;;3.93;3.60;;;10.60;50.60;;;;;;6243691;28;20274;-80
2023/05/03 08:27:12;;;;;;;4.90;4.43;;;10.60;51.00;;;;;;6238349;28;20318;-78
2023/05/03 08:30:15;;;;;;;4.50;4.20;;;10.90;51.00;;;;;;6234990;28;20235;-80
2023/05/03 08:33:18;;;;;;;3.90;3.60;;;11.00;50.70;;;;;;6241590;28;20625;-81
2023/05/03 08:36:22;;;;;;;3.87;3.57;;;11.10;50.80;;;;;;6221956;28;20223;-79
2023/05/03 08:39:26;;;;;;;6.03;4.13;;;11.40;50.10;;;;;;6244600;28;20625;-78
2023/05/03 08:42:30;;;;;;;6.27;4.30;;;11.50;49.50;;;;;;6252403;28;20231;-78
2023/05/03 08:45:34;;;;;;;5.97;4.00;;;11.70;48.80;;;;;;6258058;28;20326;-78
2023/05/03 08:48:38;;;;;;;4.87;3.70;;;11.70;48.80;;;;;;6233066;28;20219;-80
2023/05/03 08:51:45;;;;;;;6.70;3.73;;;11.70;49.60;;;;;;6246529;28;20234;-81
2023/05/03 08:54:49;;;;;;;4.20;3.90;;;11.90;49.50;;;;;;6247119;28;20230;-80
2023/05/03 08:57:52;;;;;;;4.83;3.90;;;11.90;49.40;;;;;;6252106;28;20315;-79
2023/05/03 09:00:55;;;;;;;8.23;4.03;;;12.10;49.10;;;;;;6276410;28;20262;-75
2023/05/03 09:03:58;;;;;;;5.60;4.30;;;12.20;48.70;;;;;;6268178;28;20250;-77
2023/05/03 09:07:14;;;;;;;5.47;4.40;;;12.30;49.10;;;;;;6275609;28;20231;-77
2023/05/03 09:10:22;;;;;;;5.73;4.33;;;12.50;49.00;;;;;;6264880;28;20218;-78
2023/05/03 09:13:31;;;;;;;5.03;4.53;;;12.40;49.30;;;;;;6268384;28;20211;-78
2023/05/03 09:16:34;;;;;;;4.40;4.00;;;12.30;48.40;;;;;;6267670;28;20273;-77
2023/05/03 09:19:50;;;;;;;5.20;4.40;;;12.30;48.30;;;;;;6269109;28;20286;-78
2023/05/03 09:22:54;;;;;;;6.70;4.07;;;12.50;48.30;;;;;;6265746;28;20253;-80
2023/05/03 09:25:58;;;;;;;5.77;3.93;;;12.50;48.30;;;;;;6250642;28;20264;-80
2023/05/03 09:29:03;;;;;;;4.07;3.80;;;12.70;48.00;;;;;;6227480;28;20241;-79
2023/05/03 09:32:07;;;;;;;4.40;4.00;;;12.80;47.80;;;;;;6238859;28;20250;-82
2023/05/03 09:35:12;;;;;;;4.53;4.23;;;12.70;48.80;;;;;;6233465;28;20718;-79
2023/05/03 09:38:26;;;;;;;8.17;4.20;;;12.50;49.00;;;;;;6228791;28;20249;-79
2023/05/03 09:41:31;;;;;;;4.77;4.33;;;12.60;49.00;;;;;;6234766;28;20597;-80
2023/05/03 09:44:42;;;;;;;4.10;3.80;;;12.80;47.30;;;;;;6238675;28;20239;-78
2023/05/03 09:47:52;;;;;;;4.67;4.10;;;12.90;47.60;;;;;;6248853;28;20241;-82
2023/05/03 09:50:56;;;;;;;4.67;4.30;;;12.80;47.70;;;;;;6230968;28;20242;-80
2023/05/03 09:54:02;;;;;;;4.67;4.27;;;13.00;47.30;;;;;;6231977;28;20333;-78
2023/05/03 09:57:06;;;;;;;4.57;4.17;;;13.00;47.40;;;;;;6233093;28;20238;-80
2023/05/03 10:00:12;;;;;;;4.57;4.27;;;13.10;47.20;;;;;;6247700;28;20241;-80
2023/05/03 10:03:23;;;;;;;4.67;4.03;;;12.90;47.70;;;;;;6225285;28;20235;-80
2023/05/03 10:06:32;;;;;;;4.20;3.80;;;13.00;47.20;;;;;;6238007;28;20734;-81
2023/05/03 10:09:40;;;;;;;4.90;4.47;;;13.10;47.60;;;;;;6228645;28;20238;-78
2023/05/03 10:12:44;;;;;;;5.53;4.10;;;13.30;46.60;;;;;;6238104;28;20253;-82
2023/05/03 10:15:49;;;;;;;5.47;3.97;;;13.30;47.40;;;;;;6236593;28;20227;-79
2023/05/03 10:18:58;;;;;;;6.80;4.30;;;13.50;45.70;;;;;;6231776;28;20341;-79
2023/05/03 10:22:05;;;;;;;4.07;3.80;;;13.30;46.30;;;;;;6206762;28;20804;-78
2023/05/03 10:25:10;;;;;;;4.20;3.90;;;13.50;46.00;;;;;;6201672;28;20240;-81
2023/05/03 10:28:15;;;;;;;5.00;3.83;;;13.50;46.40;;;;;;6212068;28;20232;-80
2023/05/03 10:31:44;;;;;;;6.20;3.73;;;13.60;45.90;;;;;;6207876;28;20262;-80
2023/05/03 10:34:47;;;;;;;5.40;4.20;;;13.90;46.10;;;;;;6217486;28;20234;-81
2023/05/03 10:37:51;;;;;;;4.40;4.00;;;13.90;45.40;;;;;;6216996;28;20722;-82
2023/05/03 10:40:57;;;;;;;6.00;4.30;;;13.90;46.10;;;;;;6220667;28;20239;-81
2023/05/03 10:44:01;;;;;;;4.97;4.03;;;14.00;45.50;;;;;;6216121;28;20242;-80
2023/05/03 10:47:14;;;;;;;4.10;3.70;;;14.10;45.10;;;;;;6210312;28;20741;-81
2023/05/03 10:50:28;;;;;;;4.30;3.90;;;14.30;45.10;;;;;;6213062;28;20240;-80
2023/05/03 10:53:38;;;;;;;4.43;3.90;;;13.90;45.10;;;;;;6209743;28;20228;-80
2023/05/03 10:56:54;;;;;;;4.47;4.07;;;13.90;45.80;;;;;;6205847;28;20228;-81
2023/05/03 10:59:58;;;;;;;5.03;3.87;;;14.00;45.20;;;;;;6230982;28;20242;-81
2023/05/03 11:03:13;;;;;;;8.70;4.03;;;14.30;44.70;;;;;;6237133;28;20250;-78
2023/05/03 11:06:32;;;;;;;4.53;3.60;;;14.60;45.00;;;;;;6228708;28;20242;-81
2023/05/03 11:09:35;;;;;;;4.47;4.03;;;14.70;44.30;;;;;;6213099;28;20235;-81
2023/05/03 11:12:40;;;;;;;5.40;4.43;;;14.80;44.10;;;;;;6235837;28;20250;-78
2023/05/03 11:15:43;;;;;;;4.10;3.80;;;14.70;44.00;;;;;;6238910;28;20243;-80
2023/05/03 11:18:48;;;;;;;8.67;4.00;;;14.60;44.90;;;;;;6224854;28;20914;-78
2023/05/03 11:21:52;;;;;;;9.07;4.60;;;14.60;45.10;;;;;;6238880;28;20243;-77
2023/05/03 11:24:56;;;;;;;5.10;4.60;;;14.60;43.70;;;;;;6238368;28;20317;-80
2023/05/03 11:28:01;;;;;;;7.93;4.40;;;14.60;44.70;;;;;;6229679;28;20258;-80
2023/05/03 11:31:05;;;;;;;4.47;4.17;;;14.70;45.40;;;;;;6238152;28;20731;-80
2023/05/03 11:34:08;;;;;;;4.77;3.90;;;14.90;44.20;;;;;;6232859;28;20261;-81
2023/05/03 11:37:11;;;;;;;4.90;3.40;;;15.00;44.40;;;;;;6239614;28;20230;-81
2023/05/03 11:40:17;;;;;;;4.33;3.57;;;15.20;43.90;;;;;;6233366;28;20238;-80
2023/05/03 11:43:21;;;;;;;3.70;3.20;;;15.40;43.80;;;;;;6242885;28;20235;-81
2023/05/03 11:46:26;;;;;;;4.00;3.60;;;15.30;43.40;;;;;;6239125;28;20840;-81
2023/05/03 11:49:30;;;;;;;5.67;4.10;;;15.20;43.60;;;;;;6240276;28;20238;-81
2023/05/03 11:52:36;;;;;;;3.73;3.30;;;15.00;42.60;;;;;;6244192;28;20227;-82
2023/05/03 11:55:41;;;;;;;4.07;3.23;;;15.00;43.30;;;;;;6231269;28;20226;-79
2023/05/03 11:58:54;;;;;;;3.30;3.00;;;15.00;43.10;;;;;;6242706;28;20235;-82
2023/05/03 12:01:58;;;;;;;5.50;3.57;;;15.20;43.80;;;;;;6245005;28;20646;-79
2023/05/03 12:05:01;;;;;;;4.23;3.33;;;15.40;43.70;;;;;;6240717;28;20237;-81
2023/05/03 12:08:05;;;;;;;3.53;3.13;;;15.50;43.10;;;;;;6221055;28;20325;-81
2023/05/03 12:11:10;;;;;;;3.70;3.43;;;15.10;43.80;;;;;;6218057;28;20235;-79
2023/05/03 12:14:17;;;;;;;3.00;2.80;;;15.30;43.20;;;;;;6231536;28;20300;-80
2023/05/03 12:17:34;;;;;;;3.83;3.17;;;15.40;43.30;;;;;;6220522;28;20242;-81
2023/05/03 12:20:40;;;;;;;3.90;3.23;;;15.50;43.30;;;;;;6209064;28;20732;-81
2023/05/03 12:23:48;;;;;;;3.63;3.30;;;15.60;42.50;;;;;;6216229;28;20240;-80
2023/05/03 12:26:53;;;;;;;4.27;3.40;;;15.60;43.40;;;;;;6210461;28;20838;-79
2023/05/03 12:30:00;;;;;;;4.73;3.93;;;15.70;42.60;;;;;;6225010;28;20247;-81
2023/05/03 12:33:05;;;;;;;3.73;3.40;;;15.60;43.20;;;;;;6215296;28;20251;-80
2023/05/03 12:36:12;;;;;;;4.10;3.50;;;15.70;43.00;;;;;;6212092;28;20255;-79
2023/05/03 12:39:16;;;;;;;3.47;3.17;;;15.80;42.60;;;;;;6220788;28;20743;-79
2023/05/03 12:42:24;;;;;;;3.27;3.10;;;15.90;42.70;;;;;;6200645;28;20351;-80
2023/05/03 12:45:32;;;;;;;4.40;3.50;;;16.10;43.10;;;;;;6221032;28;20297;-82
2023/05/03 12:48:36;;;;;;;3.60;3.30;;;16.20;42.70;;;;;;6207214;28;20318;-79
2023/05/03 12:51:40;;;;;;;3.50;3.30;;;16.10;42.30;;;;;;6209056;28;20234;-80
2023/05/03 12:54:45;;;;;;;8.30;3.70;;;16.10;41.90;;;;;;6212918;28;20850;-81
2023/05/03 12:57:51;;;;;;;3.97;3.67;;;16.00;43.00;;;;;;6233931;28;20241;-78
2023/05/03 13:01:17;;;;;;;5.40;3.50;;;16.10;42.20;;;;;;6223610;28;20247;-80
2023/05/03 13:04:40;;;;;;;5.63;3.80;;;16.20;42.20;;;;;;6237853;28;20242;-80
2023/05/03 13:07:47;;;;;;;3.57;3.27;;;16.00;42.50;;;;;;6236892;28;20242;-81
2023/05/03 13:10:58;;;;;;;4.13;3.77;;;15.60;43.40;;;;;;6239788;28;20246;-80
2023/05/03 13:14:02;;;;;;;6.07;3.87;;;15.80;43.30;;;;;;6239285;28;20596;-79
2023/05/03 13:17:06;;;;;;;4.57;3.47;;;16.00;42.90;;;;;;6237441;28;20261;-78
2023/05/03 13:20:11;;;;;;;5.70;3.50;;;16.10;42.90;;;;;;6213279;28;20401;-79
2023/05/03 13:23:14;;;;;;;3.63;3.40;;;16.40;42.80;;;;;;6209974;28;20243;-79
2023/05/03 13:26:17;;;;;;;4.17;3.77;;;16.50;41.70;;;;;;6210095;28;20237;-78
2023/05/03 13:29:20;;;;;;;3.73;3.60;;;16.40;42.10;;;;;;6211777;28;20235;-79
2023/05/03 13:32:25;;;;;;;6.47;3.20;;;16.30;42.10;;;;;;6234377;28;20801;-78
2023/05/03 13:35:28;;;;;;;4.30;3.57;;;16.30;43.00;;;;;;6236480;28;20231;-79
2023/05/03 13:38:32;;;;;;;5.17;3.60;;;16.50;42.50;;;;;;6210100;28;20240;-79
2023/05/03 13:41:37;;;;;;;4.47;3.80;;;16.50;41.70;;;;;;6208646;28;20293;-76
2023/05/03 13:44:41;;;;;;;3.30;3.10;;;16.60;41.70;;;;;;6242701;28;20655;-80
2023/05/03 13:47:45;;;;;;;3.90;3.23;;;16.50;41.90;;;;;;6209296;28;20230;-79
2023/05/03 13:51:09;;;;;;;3.33;3.20;;;16.40;42.00;;;;;;6208653;28;20246;-79
2023/05/03 13:54:12;;;;;;;3.57;3.27;;;16.40;42.60;;;;;;6222146;28;20246;-78
2023/05/03 13:57:17;;;;;;;5.57;3.10;;;16.60;42.50;;;;;;6216213;28;20239;-78
2023/05/03 14:00:21;;;;;;;4.17;3.70;;;16.50;41.80;;;;;;6212974;28;20242;-79
2023/05/03 14:03:25;;;;;;;3.87;3.30;;;16.40;41.80;;;;;;6235549;28;20235;-80
2023/05/03 14:06:29;;;;;;;5.13;4.00;;;16.50;41.80;;;;;;6236538;28;21813;-78
2023/05/03 14:09:38;;;;;;;4.23;3.83;;;16.60;42.60;;;;;;6237329;28;20735;-80
2023/05/03 14:12:41;;;;;;;4.63;3.90;;;16.80;42.50;;;;;;6229064;28;20745;-79
2023/05/03 14:15:45;;;;;;;9.30;4.07;;;16.90;41.60;;;;;;6221404;28;20248;-79
2023/05/03 14:18:50;;;;;;;2.90;2.80;;;17.00;41.80;;;;;;6256760;28;20322;-79
2023/05/03 14:21:58;;;;;;;3.40;3.17;;;17.20;41.80;;;;;;6228021;28;20304;-79
2023/05/03 14:25:01;;;;;;;3.53;3.17;;;17.20;40.80;;;;;;6248418;28;20261;-79
2023/05/03 14:28:05;;;;;;;3.70;3.40;;;17.10;41.20;;;;;;6236388;28;20230;-80
2023/05/03 14:31:08;;;;;;;4.27;3.40;;;17.00;41.90;;;;;;6232528;28;20251;-80
2023/05/03 14:34:13;;;;;;;3.23;3.00;;;17.00;42.30;;;;;;6228185;28;20317;-79
2023/05/03 14:37:15;;;;;;;6.63;4.17;;;17.20;41.90;;;;;;6236127;28;20230;-77
2023/05/03 14:40:19;;;;;;;3.57;3.27;;;17.20;41.70;;;;;;6228702;28;20242;-80
2023/05/03 14:43:22;;;;;;;4.70;3.20;;;17.20;41.70;;;;;;6229021;28;20251;-80
2023/05/03 14:46:25;;;;;;;5.00;3.63;;;17.20;41.80;;;;;;6227717;28;20761;-80
2023/05/03 14:49:36;;;;;;;7.87;3.80;;;17.10;41.90;;;;;;6237169;28;20234;-79
2023/05/03 14:52:39;;;;;;;3.53;2.90;;;17.00;42.00;;;;;;6239214;28;20314;-79
2023/05/03 14:55:42;;;;;;;3.73;3.30;;;16.90;42.60;;;;;;6238462;28;20226;-81
2023/05/03 14:58:45;;;;;;;4.93;3.67;;;17.00;42.10;;;;;;6235864;28;20305;-78
2023/05/03 15:01:52;;;;;;;4.77;3.43;;;17.20;41.70;;;;;;6227023;28;20236;-79
2023/05/03 15:04:56;;;;;;;3.47;3.20;;;17.40;42.00;;;;;;6229788;28;20239;-78
2023/05/03 15:07:59;;;;;;;5.03;3.60;;;17.50;41.40;;;;;;6234958;28;20230;-78
2023/05/03 15:11:02;;;;;;;3.20;3.00;;;17.50;41.50;;;;;;6236430;28;20242;-79
2023/05/03 15:14:06;;;;;;;4.33;3.57;;;17.60;41.80;;;;;;6228647;28;20237;-78
2023/05/03 15:17:09;;;;;;;3.60;3.30;;;17.60;41.70;;;;;;6266186;28;20249;-79
2023/05/03 15:20:14;;;;;;;4.20;3.07;;;17.00;41.90;;;;;;6246100;28;20250;-81
2023/05/03 15:23:17;;;;;;;3.83;3.53;;;17.10;42.30;;;;;;6250007;28;20249;-78
2023/05/03 15:26:21;;;;;;;3.70;3.40;;;17.20;41.70;;;;;;6236225;28;20243;-78
2023/05/03 15:29:24;;;;;;;3.90;3.50;;;17.20;42.10;;;;;;6232841;28;20245;-79
2023/05/03 15:32:27;;;;;;;3.83;3.53;;;17.40;41.80;;;;;;6250599;28;20830;-79
2023/05/03 15:35:32;;;;;;;4.30;3.70;;;17.80;41.80;;;;;;6237550;28;20234;-79
2023/05/03 15:38:35;;;;;;;3.57;3.37;;;18.00;41.20;;;;;;6242003;28;20229;-80
2023/05/03 15:41:39;;;;;;;5.00;3.27;;;17.60;41.70;;;;;;6232715;28;20235;-78
2023/05/03 15:44:45;;;;;;;6.80;6.10;;;17.50;41.30;;;;;;6235784;28;20234;-79
2023/05/03 15:47:48;;;;;;;3.83;3.53;;;17.20;41.50;;;;;;6237492;28;20373;-80
2023/05/03 15:50:53;;;;;;;6.53;2.97;;;17.30;41.70;;;;;;6237005;28;20230;-79
2023/05/03 15:53:56;;;;;;;3.77;3.43;;;17.40;42.00;;;;;;6245834;28;20749;-80
2023/05/03 15:57:03;;;;;;;4.80;3.37;;;17.00;42.00;;;;;;6245099;28;20258;-81
2023/05/03 16:00:10;;;;;;;3.60;3.30;;;16.90;42.60;;;;;;6225464;28;20730;-78
2023/05/03 16:03:14;;;;;;;4.80;3.40;;;16.80;42.10;;;;;;6229725;28;20238;-80
2023/05/03 16:06:19;;;;;;;5.97;3.40;;;16.50;42.00;;;;;;6229362;28;20241;-78